createdAt,value
2018-04-30T00:00:54.842Z,96.47
2018-04-30T00:01:35.773Z,96.18
2018-04-30T00:02:16.445Z,95.79
2018-04-30T00:02:56.821Z,94.93
2018-04-30T00:03:37.262Z,94.74
2018-04-30T00:04:18.084Z,94.36
2018-04-30T00:04:58.572Z,94.26
2018-04-30T00:05:39.087Z,94.31
2018-04-30T00:06:19.934Z,94.12
2018-04-30T00:07:00.307Z,94.98
2018-04-30T00:07:41.472Z,93.45
2018-04-30T00:08:22.403Z,94.12
2018-04-30T00:09:03.835Z,94.17
2018-04-30T00:09:44.234Z,94.4
2018-04-30T00:10:25.143Z,94.31
2018-04-30T00:11:05.649Z,93.35
2018-04-30T00:11:46.711Z,93.26
2018-04-30T00:12:27.134Z,92.58
2018-04-30T00:13:07.588Z,93.64
2018-04-30T00:13:49.857Z,93.26
2018-04-30T00:14:30.290Z,92.68
2018-04-30T00:15:10.911Z,92.58
2018-04-30T00:15:51.419Z,92.78
2018-04-30T00:16:31.689Z,92.87
2018-04-30T00:17:12.175Z,93.54
2018-04-30T00:17:52.569Z,93.74
2018-04-30T00:18:32.995Z,93.07
2018-04-30T00:19:13.500Z,92.83
2018-04-30T00:19:53.964Z,93.5
2018-04-30T00:20:34.351Z,94.07
2018-04-30T00:21:14.777Z,94.07
2018-04-30T00:21:55.217Z,94.26
2018-04-30T00:22:36.376Z,94.07
2018-04-30T00:23:16.867Z,94.65
2018-04-30T00:23:57.232Z,94.26
2018-04-30T00:24:38.656Z,94.17
2018-04-30T00:25:19.065Z,94.26
2018-04-30T00:25:59.901Z,94.36
2018-04-30T00:26:40.565Z,94.07
2018-04-30T00:27:20.840Z,94.17
2018-04-30T00:28:01.275Z,93.59
2018-04-30T00:28:41.778Z,94.26
2018-04-30T00:29:22.297Z,94.45
2018-04-30T00:32:58.028Z,95.12
2018-04-30T00:33:38.713Z,94.93
2018-04-30T00:34:19.267Z,94.84
2018-04-30T00:34:59.701Z,94.93
2018-04-30T00:35:40.320Z,94.65
2018-04-30T00:36:20.654Z,95.41
2018-04-30T00:37:01.144Z,95.41
2018-04-30T00:37:41.653Z,95.7
2018-04-30T00:38:22.400Z,95.51
2018-04-30T00:39:02.915Z,95.61
2018-04-30T00:39:43.305Z,95.61
2018-04-30T00:40:23.682Z,96.56
2018-04-30T00:41:04.102Z,96.18
2018-04-30T00:41:44.687Z,96.27
2018-04-30T00:42:25.141Z,95.84
2018-04-30T00:43:07.688Z,96.75
2018-04-30T00:43:48.148Z,96.75
2018-04-30T00:44:29.147Z,96.75
2018-04-30T00:45:09.672Z,96.84
2018-04-30T00:45:50.257Z,96.84
2018-04-30T00:46:30.544Z,96.75
2018-04-30T00:47:11.010Z,95.89
2018-04-30T00:47:51.419Z,96.47
2018-04-30T00:48:31.800Z,96.66
2018-04-30T00:49:12.230Z,96.75
2018-04-30T00:49:52.569Z,96.66
2018-04-30T00:50:32.952Z,96.56
2018-04-30T00:51:13.328Z,96.66
2018-04-30T00:51:53.747Z,96.8
2018-04-30T00:52:34.154Z,96.32
2018-04-30T00:53:14.529Z,97.47
2018-04-30T00:53:54.951Z,97.47
2018-04-30T00:54:35.328Z,97.56
2018-04-30T00:55:15.748Z,97.47
2018-04-30T00:55:56.092Z,97.95
2018-04-30T00:56:36.577Z,98.33
2018-04-30T00:57:16.931Z,98.04
2018-04-30T00:57:57.376Z,98.9
2018-04-30T00:58:37.740Z,98.9
2018-04-30T00:59:18.093Z,99.29
2018-04-30T00:59:58.568Z,99.38
2018-04-30T01:00:38.972Z,98.71
2018-04-30T01:01:19.371Z,98.71
2018-04-30T01:01:59.745Z,99.1
2018-04-30T01:02:40.141Z,99.76
2018-04-30T01:03:20.664Z,99.96
2018-04-30T01:04:01.006Z,98.71
2018-04-30T01:04:41.452Z,99.76
2018-04-30T01:05:21.856Z,98.71
2018-04-30T01:06:02.209Z,99.19
2018-04-30T01:06:42.704Z,99.29
2018-04-30T01:07:23.064Z,98.43
2018-04-30T01:08:03.580Z,98.57
2018-04-30T01:08:44.087Z,98.71
2018-04-30T01:09:24.449Z,99
2018-04-30T01:10:04.876Z,99
2018-04-30T01:10:45.324Z,98.33
2018-04-30T01:11:25.696Z,98.9
2018-04-30T01:12:06.108Z,98.86
2018-04-30T01:12:46.514Z,98.38
2018-04-30T01:13:27.002Z,98.38
2018-04-30T01:14:07.688Z,97.95
2018-04-30T01:14:48.870Z,98.43
2018-04-30T01:15:30.678Z,98.24
2018-04-30T01:16:11.323Z,98.19
2018-04-30T01:16:55.032Z,98.24
2018-04-30T01:17:37.843Z,97.71
2018-04-30T01:18:19.050Z,97.13
2018-04-30T01:19:01.715Z,97.13
2018-04-30T01:24:13.328Z,95.41
2018-04-30T01:24:54.288Z,94.84
2018-04-30T01:25:34.565Z,94.65
2018-04-30T01:26:16.735Z,94.84
2018-04-30T01:26:57.645Z,94.74
2018-04-30T01:27:38.200Z,94.65
2018-04-30T01:28:18.586Z,94.93
2018-04-30T01:28:59.024Z,94.93
2018-04-30T01:29:39.410Z,95.22
2018-04-30T01:30:19.829Z,95.03
2018-04-30T01:31:00.337Z,94.84
2018-04-30T01:31:40.649Z,95.51
2018-04-30T01:32:21.113Z,95.22
2018-04-30T01:33:01.602Z,94.84
2018-04-30T01:33:42.551Z,95.03
2018-04-30T01:34:23.044Z,94.07
2018-04-30T01:35:03.633Z,94.45
2018-04-30T01:35:44.732Z,94.17
2018-04-30T01:36:27.518Z,94.26
2018-04-30T01:37:11.161Z,94.36
2018-04-30T01:37:51.472Z,94.84
2018-04-30T01:38:31.195Z,94.02
2018-04-30T01:39:11.549Z,93.69
2018-04-30T01:39:52.745Z,94.45
2018-04-30T01:41:53.325Z,94.45
2018-04-30T01:42:40.140Z,94.26
2018-04-30T01:45:36.277Z,93.98
2018-04-30T01:46:24.235Z,94.12
2018-04-30T01:47:13.193Z,93.79
2018-04-30T02:03:03.383Z,94.4
2018-04-30T02:03:53.640Z,94.55
2018-04-30T02:04:36.672Z,93.88
2018-04-30T02:05:17.812Z,93.98
2018-04-30T02:05:58.381Z,94.17
2018-04-30T02:06:39.070Z,94.26
2018-04-30T02:07:19.430Z,94.17
2018-04-30T02:07:59.963Z,94.45
2018-04-30T02:08:40.661Z,94.02
2018-04-30T02:09:21.229Z,93.3
2018-04-30T02:10:02.702Z,93.69
2018-04-30T02:10:43.091Z,93.45
2018-04-30T02:11:23.534Z,93.26
2018-04-30T02:12:06.669Z,93.88
2018-04-30T02:12:48.919Z,93.88
2018-04-30T02:13:29.051Z,94.26
2018-04-30T02:14:11.216Z,94.36
2018-04-30T02:14:52.378Z,93.98
2018-04-30T02:15:32.776Z,93.98
2018-04-30T02:16:13.724Z,94.36
2018-04-30T02:16:54.107Z,94.07
2018-04-30T02:17:36.807Z,93.88
2018-04-30T02:18:17.454Z,94.26
2018-04-30T02:18:58.194Z,93.98
2018-04-30T02:19:40.208Z,93.4
2018-04-30T02:20:20.702Z,94.21
2018-04-30T02:21:01.642Z,93.59
2018-04-30T02:21:42.145Z,93.3
2018-04-30T02:22:23.429Z,94.17
2018-04-30T02:23:03.932Z,94.17
2018-04-30T02:23:44.701Z,94.31
2018-04-30T02:24:25.117Z,94.17
2018-04-30T02:25:05.954Z,93.5
2018-04-30T02:25:46.338Z,92.87
2018-04-30T02:26:26.811Z,93.07
2018-04-30T02:27:07.944Z,93.16
2018-04-30T02:27:48.366Z,92.58
2018-04-30T02:28:28.741Z,92.68
2018-04-30T02:29:09.047Z,93.26
2018-04-30T02:29:49.543Z,92.87
2018-04-30T02:30:29.980Z,93.16
2018-04-30T02:31:10.967Z,92.78
2018-04-30T02:31:53.239Z,93.16
2018-04-30T02:50:43.590Z,91.63
2018-04-30T02:51:26.374Z,91.82
2018-04-30T02:52:07.534Z,91.72
2018-04-30T02:52:48.025Z,91.53
2018-04-30T02:53:28.306Z,91.72
2018-04-30T02:54:08.880Z,91.72
2018-04-30T02:54:49.469Z,92.49
2018-04-30T02:55:40.634Z,91.44
2018-04-30T02:56:22.296Z,91.53
2018-04-30T02:57:02.762Z,91.53
2018-04-30T02:57:49.486Z,92.4
2018-04-30T02:58:30.499Z,91.34
2018-04-30T02:59:11.195Z,91.53
2018-04-30T02:59:54.726Z,91.34
2018-04-30T03:00:35.739Z,92.3
2018-04-30T03:01:19.157Z,91.25
2018-04-30T03:01:59.487Z,91.44
2018-04-30T03:02:41.532Z,91.15
2018-04-30T03:03:22.406Z,91.53
2018-04-30T03:04:02.593Z,91.34
2018-04-30T03:04:43.610Z,91.44
2018-04-30T03:05:24.178Z,91.53
2018-04-30T03:06:09.043Z,90.96
2018-04-30T03:06:50.134Z,90.67
2018-04-30T03:12:29.137Z,90.77
2018-04-30T03:40:23.321Z,92.58
2018-04-30T03:41:20.897Z,92.83
2018-04-30T03:45:23.922Z,93.64
2018-04-30T03:57:42.110Z,95.36
2018-04-30T03:58:24.252Z,94.74
2018-04-30T03:59:05.091Z,93.98
2018-04-30T03:59:45.840Z,93.84
2018-04-30T04:00:26.993Z,94.12
2018-04-30T04:01:07.919Z,94.12
2018-04-30T04:01:48.837Z,93.93
2018-04-30T04:02:29.369Z,94.79
2018-04-30T04:44:33.830Z,97.71
2018-04-30T04:45:13.848Z,98.23
2018-04-30T04:45:54.743Z,97.99
2018-04-30T04:46:35.500Z,98.28
2018-04-30T04:47:15.676Z,98.52
2018-04-30T04:47:56.180Z,98.8
2018-04-30T04:48:37.157Z,98.71
2018-04-30T04:49:17.996Z,98.71
2018-04-30T04:49:58.327Z,98.8
2018-04-30T04:50:38.602Z,98.8
2018-04-30T04:51:19.047Z,98.8
2018-04-30T04:51:59.489Z,99.09
2018-04-30T04:52:40.001Z,99.28
2018-04-30T04:53:20.416Z,99.76
2018-04-30T04:54:00.807Z,99.76
2018-04-30T04:54:41.394Z,99.24
2018-04-30T04:55:21.888Z,99.33
2018-04-30T04:56:03.305Z,98.95
2018-04-30T04:56:43.260Z,99.24
2018-04-30T04:57:23.681Z,99.24
2018-04-30T04:58:04.060Z,99.04
2018-04-30T04:58:44.433Z,98.66
2018-04-30T04:59:24.879Z,98.85
2018-04-30T05:00:05.517Z,98.47
2018-04-30T05:00:45.984Z,98.57
2018-04-30T05:01:28.642Z,98.18
2018-04-30T05:03:20.632Z,97.33
2018-04-30T05:07:45.095Z,96.22
2018-04-30T05:13:06.305Z,94.6
2018-04-30T05:13:45.389Z,94.98
2018-04-30T05:14:25.252Z,94.98
2018-04-30T05:15:05.793Z,95.07
2018-04-30T05:15:46.202Z,95.51
2018-04-30T05:16:27.359Z,95.22
2018-04-30T05:17:54.645Z,96.84
2018-04-30T05:18:35.651Z,96.75
2018-04-30T05:19:16.616Z,96.75
2018-04-30T05:19:56.842Z,96.18
2018-04-30T05:20:41.291Z,96.75
2018-04-30T05:21:20.984Z,96.75
2018-04-30T05:22:01.417Z,96.66
2018-04-30T05:22:42.364Z,96.66
2018-04-30T05:23:22.646Z,96.84
2018-04-30T05:24:03.232Z,96.47
2018-04-30T05:24:43.570Z,96.47
2018-04-30T05:28:44.256Z,97.8
2018-04-30T05:29:28.253Z,97.42
2018-04-30T05:30:08.689Z,97.33
2018-04-30T05:30:49.209Z,97.9
2018-04-30T05:31:29.621Z,97.52
2018-04-30T05:32:10.270Z,97.99
2018-04-30T05:32:50.412Z,97.71
2018-04-30T05:33:30.736Z,97.8
2018-04-30T05:34:12.000Z,97.52
2018-04-30T05:34:54.051Z,98.47
2018-04-30T05:35:34.302Z,97.61
2018-04-30T05:36:14.707Z,98.13
2018-04-30T05:36:55.807Z,97.47
2018-04-30T05:37:35.950Z,98.23
2018-04-30T05:38:16.598Z,98.13
2018-04-30T05:38:57.577Z,98.8
2018-04-30T05:39:39.277Z,98.85
2018-04-30T05:40:19.717Z,98.66
2018-04-30T05:41:00.456Z,98.66
2018-04-30T05:41:41.700Z,98.85
2018-04-30T05:42:21.977Z,98.47
2018-04-30T05:43:03.573Z,98.95
2018-04-30T05:43:43.555Z,99.04
2018-04-30T05:44:23.876Z,99.04
2018-04-30T05:45:04.450Z,98.47
2018-04-30T05:45:44.766Z,98.85
2018-04-30T05:46:25.382Z,98.28
2018-04-30T05:47:06.033Z,97.71
2018-04-30T05:47:46.338Z,97.99
2018-04-30T05:48:26.678Z,97.61
2018-04-30T05:49:07.434Z,97.71
2018-04-30T05:49:47.711Z,97.9
2018-04-30T05:50:28.388Z,97.13
2018-04-30T05:51:08.959Z,97.8
2018-04-30T05:51:49.363Z,97.71
2018-04-30T05:52:29.891Z,97.52
2018-04-30T05:53:10.222Z,97.52
2018-04-30T05:53:50.667Z,97.71
2018-04-30T05:54:31.121Z,97.71
2018-04-30T05:55:11.800Z,98.09
2018-04-30T05:55:52.049Z,97.61
2018-04-30T05:56:33.485Z,97.13
2018-04-30T05:57:13.903Z,97.71
2018-04-30T05:57:54.267Z,97.23
2018-04-30T05:58:35.967Z,97.71
2018-04-30T05:59:16.511Z,96.94
2018-04-30T05:59:57.154Z,97.52
2018-04-30T06:00:39.015Z,97.71
2018-04-30T06:01:19.233Z,96.75
2018-04-30T06:01:59.752Z,97.61
2018-04-30T06:02:40.175Z,97.13
2018-04-30T06:03:20.943Z,96.75
2018-04-30T06:04:00.994Z,96.61
2018-04-30T06:04:41.547Z,97.37
2018-04-30T06:05:21.868Z,98.04
2018-04-30T06:06:02.346Z,97.94
2018-04-30T06:06:42.644Z,98.61
2018-04-30T06:07:23.265Z,98.9
2018-04-30T06:08:03.634Z,99.38
2018-04-30T06:08:44.038Z,99.66
2018-04-30T06:09:24.475Z,99.48
2018-04-30T06:10:04.812Z,99.99
2018-04-30T06:10:45.490Z,99.57
2018-04-30T06:11:26.080Z,98.8
2018-04-30T06:12:06.768Z,98.52
2018-04-30T06:12:50.237Z,99.38
2018-04-30T06:13:30.847Z,98.99
2018-04-30T06:14:12.994Z,98.99
2018-04-30T06:14:53.057Z,98.23
2018-04-30T06:15:34.205Z,97.56
2018-04-30T06:16:18.482Z,96.84
2018-04-30T06:16:59.395Z,96.46
2018-04-30T06:17:41.303Z,98.18
2018-04-30T06:18:25.305Z,97.89
2018-04-30T06:19:07.448Z,96.46
2018-04-30T06:19:49.443Z,96.56
2018-04-30T06:20:29.936Z,96.32
2018-04-30T06:21:11.554Z,96.32
2018-04-30T06:21:52.600Z,92.83
2018-04-30T06:22:34.424Z,93.21
2018-04-30T06:23:15.033Z,94.51
2018-04-30T06:23:55.613Z,93.02
2018-04-30T06:24:37.129Z,93.79
2018-04-30T06:25:17.585Z,93.79
2018-04-30T06:25:58.083Z,92.36
2018-04-30T06:26:38.892Z,92.07
2018-04-30T06:27:20.616Z,92.07
2018-04-30T06:28:01.293Z,93.31
2018-04-30T06:28:45.319Z,91.97
2018-04-30T06:29:29.395Z,91.78
2018-04-30T06:30:10.550Z,94.17
2018-04-30T06:30:51.078Z,90.64
2018-04-30T06:31:34.297Z,91.5
2018-04-30T06:35:31.632Z,90.97
2018-04-30T06:38:49.509Z,90.49
2018-04-30T06:41:02.877Z,90.3
2018-04-30T06:43:19.146Z,89.73
2018-04-30T06:44:01.319Z,90.49
2018-04-30T06:49:05.819Z,89.82
2018-04-30T06:49:46.906Z,89.34
2018-04-30T06:50:27.313Z,87.53
2018-04-30T06:51:09.699Z,88.2
2018-04-30T06:51:50.462Z,89.34
2018-04-30T06:52:31.382Z,89.25
2018-04-30T06:54:52.501Z,90.88
2018-04-30T06:59:04.413Z,89.44
2018-04-30T07:03:57.412Z,87.39
2018-04-30T07:07:21.327Z,88.48
2018-04-30T07:08:01.723Z,87.87
2018-04-30T07:08:42.132Z,87.01
2018-04-30T07:09:22.724Z,88.92
2018-04-30T07:10:03.911Z,88.96
2018-04-30T07:10:44.411Z,87.62
2018-04-30T07:11:24.747Z,87.43
2018-04-30T07:12:05.403Z,87.15
2018-04-30T07:12:45.830Z,86.76
2018-04-30T07:13:26.216Z,87.39
2018-04-30T07:14:07.228Z,87.2
2018-04-30T07:14:47.681Z,86.82
2018-04-30T07:15:28.240Z,87.29
2018-04-30T07:17:20.560Z,87.29
2018-04-30T07:18:02.785Z,88.25
2018-04-30T07:18:43.330Z,88.06
2018-04-30T07:19:23.650Z,88.82
2018-04-30T07:20:04.149Z,88.73
2018-04-30T07:20:44.548Z,89.78
2018-04-30T07:21:25.453Z,88.82
2018-04-30T07:22:05.960Z,88.15
2018-04-30T07:22:46.407Z,87.58
2018-04-30T07:23:27.023Z,86.53
2018-04-30T07:24:07.432Z,87.48
2018-04-30T07:24:48.571Z,87.39
2018-04-30T07:25:29.216Z,88.25
2018-04-30T07:26:09.477Z,87.48
2018-04-30T07:26:50.855Z,87.58
2018-04-30T07:27:31.402Z,87.39
2018-04-30T07:28:11.670Z,87.77
2018-04-30T07:28:52.014Z,87.58
2018-04-30T07:29:32.945Z,88.06
2018-04-30T07:30:13.193Z,88.25
2018-04-30T07:30:55.650Z,87.29
2018-04-30T07:31:36.083Z,85.77
2018-04-30T07:32:16.679Z,86.24
2018-04-30T07:32:57.556Z,86.24
2018-04-30T07:33:38.525Z,86.53
2018-04-30T07:34:18.982Z,87.39
2018-04-30T07:35:00.495Z,85.86
2018-04-30T07:35:40.553Z,86.24
2018-04-30T07:36:23.042Z,85.77
2018-04-30T07:37:03.582Z,86.05
2018-04-30T07:37:44.876Z,84.91
2018-04-30T07:38:25.617Z,83.38
2018-04-30T07:39:06.100Z,84.05
2018-04-30T07:39:47.477Z,83.76
2018-04-30T07:40:27.701Z,84.14
2018-04-30T07:41:08.752Z,83.95
2018-04-30T07:41:49.442Z,84.23
2018-04-30T07:42:29.887Z,83.57
2018-04-30T07:43:11.116Z,84.43
2018-04-30T07:43:51.368Z,82.04
2018-04-30T07:44:32.211Z,80.32
2018-04-30T07:45:12.517Z,81.27
2018-04-30T07:45:54.143Z,82.23
2018-04-30T07:46:35.277Z,82.37
2018-04-30T07:47:17.190Z,81.47
2018-04-30T07:47:56.820Z,82.94
2018-04-30T07:48:37.376Z,82.28
2018-04-30T07:49:18.537Z,81.6
2018-04-30T07:49:59.100Z,79.79
2018-04-30T07:50:39.605Z,81.32
2018-04-30T07:51:20.478Z,80.5
2018-04-30T07:52:01.350Z,79.93
2018-04-30T07:52:41.769Z,80.11
2018-04-30T07:53:22.428Z,78.78
2018-04-30T07:54:03.480Z,78.07
2018-04-30T07:54:43.638Z,77.97
2018-04-30T07:55:24.960Z,78.83
2018-04-30T07:56:05.446Z,78.55
2018-04-30T07:56:47.905Z,80.46
2018-04-30T07:57:28.250Z,80.84
2018-04-30T07:58:09.127Z,78.74
2018-04-30T07:58:49.879Z,78.74
2018-04-30T07:59:30.445Z,79.31
2018-04-30T08:00:12.095Z,78.83
2018-04-30T08:00:55.487Z,80.65
2018-04-30T08:01:36.017Z,79.79
2018-04-30T08:02:17.139Z,79.12
2018-04-30T08:02:57.474Z,78.64
2018-04-30T08:03:38.489Z,79.5
2018-04-30T08:04:19.413Z,79.02
2018-04-30T08:05:01.513Z,80.46
2018-04-30T08:05:42.902Z,80.65
2018-04-30T08:06:23.272Z,80.74
2018-04-30T08:07:03.868Z,78.83
2018-04-30T08:07:44.547Z,79.12
2018-04-30T08:08:25.059Z,78.74
2018-04-30T08:09:05.587Z,79.12
2018-04-30T08:09:46.559Z,77.21
2018-04-30T08:10:26.869Z,76.25
2018-04-30T08:11:07.709Z,77.5
2018-04-30T08:11:48.877Z,77.4
2018-04-30T08:12:29.331Z,77.45
2018-04-30T08:13:10.611Z,78.7
2018-04-30T08:13:51.034Z,77.65
2018-04-30T08:14:33.759Z,76.88
2018-04-30T08:15:14.173Z,77.36
2018-04-30T08:15:54.739Z,79.27
2018-04-30T08:16:36.411Z,78.03
2018-04-30T08:17:16.852Z,78.16
2018-04-30T08:19:08.221Z,77.4
2018-04-30T08:19:51.111Z,77.4
2018-04-30T08:20:32.804Z,77.3
2018-04-30T08:21:13.588Z,76.45
2018-04-30T08:21:53.996Z,75.78
2018-04-30T08:22:34.672Z,76.16
2018-04-30T08:23:15.147Z,76.64
2018-04-30T08:23:55.837Z,76.35
2018-04-30T08:24:36.150Z,76.88
2018-04-30T08:25:16.940Z,77.84
2018-04-30T08:25:57.606Z,77.65
2018-04-30T08:26:38.221Z,77.65
2018-04-30T08:27:18.600Z,78.13
2018-04-30T08:27:58.995Z,78.6
2018-04-30T08:28:39.774Z,78.13
2018-04-30T08:29:20.022Z,78.7
2018-04-30T08:30:00.743Z,78.7
2018-04-30T08:30:40.964Z,78.79
2018-04-30T08:31:21.828Z,78.22
2018-04-30T08:32:02.307Z,77.74
2018-04-30T08:32:43.056Z,77.26
2018-04-30T08:33:23.779Z,77.65
2018-04-30T08:34:05.170Z,78.13
2018-04-30T08:34:46.060Z,77.94
2018-04-30T08:35:26.228Z,78.79
2018-04-30T08:36:06.947Z,78.13
2018-04-30T08:36:47.862Z,77.84
2018-04-30T08:37:29.092Z,77.36
2018-04-30T08:38:09.995Z,77.26
2018-04-30T08:38:51.027Z,76.6
2018-04-30T08:39:31.126Z,77.55
2018-04-30T08:40:12.019Z,77.26
2018-04-30T08:40:53.216Z,77.65
2018-04-30T08:41:34.925Z,77.45
2018-04-30T08:42:15.722Z,77.65
2018-04-30T08:42:56.010Z,77.65
2018-04-30T08:46:39.578Z,78.31
2018-04-30T08:47:19.611Z,78.03
2018-04-30T08:48:00.389Z,78.79
2018-04-30T08:48:40.608Z,78.99
2018-04-30T08:49:22.847Z,78.99
2018-04-30T08:50:02.559Z,78.79
2018-04-30T08:50:43.598Z,78.7
2018-04-30T08:51:24.314Z,78.31
2018-04-30T08:52:06.006Z,78.31
2018-04-30T08:52:46.902Z,78.7
2018-04-30T08:53:27.299Z,79.46
2018-04-30T08:54:08.807Z,78.79
2018-04-30T08:54:49.360Z,78.41
2018-04-30T08:55:30.188Z,78.22
2018-04-30T08:56:10.844Z,78.99
2018-04-30T08:56:52.231Z,78.13
2018-04-30T08:57:32.709Z,77.36
2018-04-30T08:58:13.289Z,76.98
2018-04-30T08:58:54.564Z,78.03
2018-04-30T08:59:34.996Z,78.22
2018-04-30T09:00:15.770Z,77.84
2018-04-30T09:00:56.401Z,78.03
2018-04-30T09:01:37.079Z,78.22
2018-04-30T09:02:17.591Z,78.31
2018-04-30T09:02:58.233Z,78.22
2018-04-30T09:03:40.122Z,77.65
2018-04-30T09:04:20.987Z,77.74
2018-04-30T09:05:01.716Z,77.26
2018-04-30T09:05:41.977Z,77.26
2018-04-30T09:06:22.655Z,77.17
2018-04-30T09:07:03.031Z,77.65
2018-04-30T09:07:45.033Z,78.31
2018-04-30T09:08:26.360Z,77.65
2018-04-30T09:09:08.839Z,76.6
2018-04-30T09:09:50.334Z,77.4
2018-04-30T09:10:31.848Z,76.88
2018-04-30T09:11:12.823Z,75.78
2018-04-30T09:11:53.021Z,76.35
2018-04-30T09:12:33.468Z,76.21
2018-04-30T09:13:13.891Z,76.79
2018-04-30T09:13:54.166Z,76.16
2018-04-30T09:14:36.396Z,77.26
2018-04-30T09:15:18.019Z,77.08
2018-04-30T09:15:58.078Z,76.73
2018-04-30T09:16:38.576Z,77.4
2018-04-30T09:17:19.440Z,77.08
2018-04-30T09:17:59.836Z,77.59
2018-04-30T09:18:40.352Z,78.07
2018-04-30T09:19:20.872Z,77.69
2018-04-30T09:20:01.622Z,77.78
2018-04-30T09:20:42.220Z,78.26
2018-04-30T09:21:22.620Z,78.36
2018-04-30T09:22:06.000Z,77.4
2018-04-30T09:22:46.143Z,77.5
2018-04-30T09:23:26.537Z,77.21
2018-04-30T09:24:07.011Z,78.36
2018-04-30T09:24:47.523Z,78.16
2018-04-30T09:25:27.910Z,77.87
2018-04-30T09:26:08.249Z,77.4
2018-04-30T09:26:48.923Z,77.01
2018-04-30T09:27:30.090Z,77.4
2018-04-30T09:28:11.705Z,77.87
2018-04-30T09:28:51.902Z,76.64
2018-04-30T09:29:32.309Z,77.34
2018-04-30T09:30:13.292Z,76.86
2018-04-30T09:31:08.641Z,76.39
2018-04-30T09:31:49.524Z,76.67
2018-04-30T09:32:30.216Z,75.62
2018-04-30T09:33:11.368Z,76.1
2018-04-30T09:33:52.335Z,76.2
2018-04-30T09:34:32.817Z,75.43
2018-04-30T09:35:13.397Z,75.24
2018-04-30T09:35:53.870Z,75.49
2018-04-30T09:36:35.410Z,75.39
2018-04-30T09:37:15.824Z,76.06
2018-04-30T09:37:56.932Z,75.3
2018-04-30T09:38:37.047Z,76.35
2018-04-30T09:39:17.578Z,76.54
2018-04-30T09:39:58.298Z,75.59
2018-04-30T09:40:39.550Z,75.68
2018-04-30T09:41:19.957Z,75.68
2018-04-30T09:42:00.654Z,76.25
2018-04-30T09:42:41.858Z,76.73
2018-04-30T09:43:22.174Z,76.73
2018-04-30T09:44:03.922Z,76.2
2018-04-30T09:44:43.702Z,76.29
2018-04-30T09:45:25.036Z,75.71
2018-04-30T09:46:05.778Z,75.14
2018-04-30T09:46:50.843Z,75.52
2018-04-30T09:47:30.590Z,75.05
2018-04-30T09:48:11.044Z,75.05
2018-04-30T09:48:51.451Z,74.7
2018-04-30T09:49:31.956Z,73.75
2018-04-30T09:50:13.896Z,74.04
2018-04-30T09:50:55.558Z,73.65
2018-04-30T09:51:36.206Z,73.08
2018-04-30T09:52:16.619Z,73.36
2018-04-30T09:52:57.173Z,73.46
2018-04-30T09:53:37.857Z,73.65
2018-04-30T09:54:21.062Z,72.31
2018-04-30T09:55:01.753Z,71.93
2018-04-30T09:55:42.244Z,71.64
2018-04-30T09:56:23.374Z,71.55
2018-04-30T09:57:04.044Z,71.55
2018-04-30T10:01:22.684Z,72.28
2018-04-30T10:02:03.437Z,73.04
2018-04-30T10:02:43.874Z,72.75
2018-04-30T10:03:24.435Z,73.14
2018-04-30T10:04:04.876Z,72.66
2018-04-30T10:43:02.545Z,73.29
2018-04-30T10:43:44.357Z,73.67
2018-04-30T10:44:24.960Z,73.58
2018-04-30T10:45:06.069Z,73.39
2018-04-30T10:45:46.772Z,73.58
2018-04-30T10:46:27.412Z,72.62
2018-04-30T10:47:08.521Z,72.81
2018-04-30T10:47:49.365Z,72.81
2018-04-30T10:48:29.883Z,72.33
2018-04-30T10:49:11.014Z,71.67
2018-04-30T10:49:52.589Z,71.57
2018-04-30T10:50:33.060Z,72.14
2018-04-30T10:51:13.609Z,72.53
2018-04-30T10:51:54.945Z,72.72
2018-04-30T10:52:35.534Z,72.53
2018-04-30T10:53:16.544Z,72.91
2018-04-30T10:53:57.140Z,72.91
2018-04-30T10:54:38.191Z,73.19
2018-04-30T10:55:18.849Z,73.58
2018-04-30T10:55:59.288Z,73.77
2018-04-30T10:56:40.741Z,73.86
2018-04-30T10:57:22.046Z,73.86
2018-04-30T10:58:02.947Z,74.63
2018-04-30T10:58:43.656Z,73.39
2018-04-30T10:59:24.794Z,73.58
2018-04-30T11:00:05.399Z,74.05
2018-04-30T11:00:46.641Z,74.44
2018-04-30T11:01:26.884Z,74.44
2018-04-30T11:02:07.302Z,72.91
2018-04-30T11:02:47.729Z,72.72
2018-04-30T11:03:28.406Z,73.58
2018-04-30T11:04:08.925Z,73.58
2018-04-30T11:04:49.904Z,73.29
2018-04-30T11:05:30.152Z,73
2018-04-30T11:06:13.381Z,73.39
2018-04-30T11:06:53.992Z,72.91
2018-04-30T11:07:33.859Z,73.1
2018-04-30T11:08:14.288Z,73.48
2018-04-30T11:08:55.049Z,73.29
2018-04-30T11:09:37.198Z,72.72
2018-04-30T11:10:18.194Z,72.47
2018-04-30T11:10:59.265Z,72.56
2018-04-30T11:11:39.605Z,72.56
2018-04-30T11:12:20.423Z,72.94
2018-04-30T11:13:01.142Z,71.8
2018-04-30T11:15:39.389Z,70.3
2018-04-30T11:17:06.754Z,69.64
2018-04-30T11:17:47.812Z,68.13
2018-04-30T11:18:29.103Z,68.13
2018-04-30T11:19:09.761Z,68.33
2018-04-30T11:19:50.502Z,68.23
2018-04-30T11:20:31.757Z,68.33
2018-04-30T11:21:13.041Z,67.27
2018-04-30T11:21:53.400Z,67.08
2018-04-30T11:22:33.889Z,67.02
2018-04-30T11:23:17.553Z,66.8
2018-04-30T11:23:59.426Z,66.93
2018-04-30T11:24:39.885Z,66.93
2018-04-30T11:25:22.156Z,66.45
2018-04-30T11:26:03.080Z,65.74
2018-04-30T11:26:43.430Z,66.51
2018-04-30T11:27:24.330Z,66.7
2018-04-30T11:28:05.346Z,67.56
2018-04-30T11:28:46.285Z,67.56
2018-04-30T11:29:26.794Z,67.37
2018-04-30T11:30:07.545Z,68.1
2018-04-30T11:30:48.077Z,68.77
2018-04-30T11:31:28.737Z,69.64
2018-04-30T11:32:10.589Z,70.3
2018-04-30T11:32:51.080Z,71.55
2018-04-30T11:33:31.992Z,71.26
2018-04-30T11:34:14.103Z,73.46
2018-04-30T11:34:54.824Z,74.48
2018-04-30T11:35:35.317Z,75.81
2018-04-30T11:36:16.100Z,78.39
2018-04-30T11:38:29.795Z,80.74
2018-04-30T11:44:27.064Z,82.75
2018-04-30T11:45:08.416Z,83.13
2018-04-30T11:45:49.557Z,82.84
2018-04-30T11:46:29.994Z,82.28
2018-04-30T11:47:11.547Z,82.75
2018-04-30T11:47:52.093Z,83.33
2018-04-30T11:48:33.190Z,81.65
2018-04-30T11:49:13.400Z,81.55
2018-04-30T11:49:53.979Z,81.65
2018-04-30T11:50:35.092Z,80.3
2018-04-30T11:51:15.977Z,77.34
2018-04-30T11:51:56.469Z,75.66
2018-04-30T11:52:37.122Z,75.85
2018-04-30T11:53:17.694Z,74.32
2018-04-30T11:53:58.530Z,74.13
2018-04-30T11:54:39.502Z,74.38
2018-04-30T11:55:19.818Z,74.85
2018-04-30T11:56:00.585Z,75.52
2018-04-30T11:56:42.390Z,76.67
2018-04-30T11:57:23.146Z,75.34
2018-04-30T11:58:03.855Z,75.81
2018-04-30T11:58:47.655Z,73.9
2018-04-30T11:59:28.390Z,75.14
2018-04-30T12:00:09.166Z,73.43
2018-04-30T12:00:49.916Z,73.14
2018-04-30T12:01:30.756Z,73.43
2018-04-30T12:02:13.428Z,73.04
2018-04-30T12:02:53.656Z,73.8
2018-04-30T12:03:34.093Z,74.85
2018-04-30T12:04:14.956Z,75.47
2018-04-30T12:04:55.782Z,75.24
2018-04-30T12:05:36.860Z,78.43
2018-04-30T12:06:18.030Z,78.05
2018-04-30T12:06:58.484Z,78.34
2018-04-30T12:07:39.497Z,79
2018-04-30T12:08:20.205Z,76.81
2018-04-30T12:09:00.627Z,76.75
2018-04-30T12:09:41.665Z,76.84
2018-04-30T12:10:22.902Z,77.8
2018-04-30T12:11:03.662Z,76.27
2018-04-30T12:11:44.325Z,77.51
2018-04-30T12:12:25.470Z,77.23
2018-04-30T12:13:11.039Z,76.94
2018-04-30T12:13:52.360Z,78.95
2018-04-30T12:14:32.801Z,79.43
2018-04-30T12:15:13.891Z,76.33
2018-04-30T12:15:54.502Z,77.76
2018-04-30T12:16:35.388Z,76.42
2018-04-30T12:17:15.319Z,76.2
2018-04-30T12:17:55.816Z,76.86
2018-04-30T12:18:36.430Z,76.25
2018-04-30T12:19:17.069Z,77.21
2018-04-30T12:19:57.413Z,80.65
2018-04-30T12:20:38.127Z,82.18
2018-04-30T12:21:18.427Z,80.65
2018-04-30T12:21:59.047Z,81.37
2018-04-30T12:22:39.392Z,82.75
2018-04-30T12:23:19.993Z,83.61
2018-04-30T12:24:00.523Z,82.84
2018-04-30T12:24:41.484Z,82.65
2018-04-30T12:25:22.697Z,83.8
2018-04-30T12:26:03.114Z,82.94
2018-04-30T12:26:43.737Z,80.22
2018-04-30T12:27:24.314Z,81.37
2018-04-30T12:28:04.825Z,83.76
2018-04-30T12:28:48.040Z,83.86
2018-04-30T12:29:28.795Z,83.76
2018-04-30T12:30:09.269Z,83.76
2018-04-30T12:30:49.913Z,84.05
2018-04-30T12:31:30.326Z,85.77
2018-04-30T12:32:10.823Z,85.38
2018-04-30T12:32:51.858Z,84.43
2018-04-30T12:33:32.139Z,84.14
2018-04-30T12:34:12.580Z,87.1
2018-04-30T12:34:53.178Z,86.57
2018-04-30T12:35:33.595Z,85.42
2018-04-30T12:36:14.089Z,82.65
2018-04-30T12:36:54.773Z,81.6
2018-04-30T12:37:35.226Z,79.6
2018-04-30T12:38:15.963Z,78.83
2018-04-30T12:38:56.442Z,80.93